sensor_id;sensor_type;location;lat;lon;timestamp;pressure;altitude;pressure_sealevel;temperature;humidity
74242;BME280;62599;49.146;10.426;2023-05-10T00:00:50;95087.91;;;12.34;100.00
74242;BME280;62599;49.146;10.426;2023-05-10T00:03:16;95085.19;;;12.34;100.00
74242;BME280;62599;49.146;10.426;2023-05-10T00:05:41;95080.50;;;12.31;100.00
74242;BME280;62599;49.146;10.426;2023-05-10T00:08:07;95082.44;;;12.30;100.00
74242;BME280;62599;49.146;10.426;2023-05-10T00:10:32;95078.63;;;12.31;100.00
74242;BME280;62599;49.146;10.426;2023-05-10T00:12:57;95087.06;;;12.29;100.00
74242;BME280;62599;49.146;10.426;2023-05-10T00:15:26;95084.34;;;12.29;100.00
74242;BME280;62599;49.146;10.426;2023-05-10T00:17:51;95082.09;;;12.32;100.00
74242;BME280;62599;49.146;10.426;2023-05-10T00:20:17;95085.13;;;12.30;100.00
74242;BME280;62599;49.146;10.426;2023-05-10T00:22:42;95083.94;;;12.27;100.00
74242;BME280;62599;49.146;10.426;2023-05-10T00:25:08;95085.84;;;12.27;100.00
74242;BME280;62599;49.146;10.426;2023-05-10T00:27:34;95075.41;;;12.25;100.00
74242;BME280;62599;49.146;10.426;2023-05-10T00:29:59;95082.28;;;12.23;100.00
74242;BME280;62599;49.146;10.426;2023-05-10T00:32:25;95081.53;;;12.22;100.00
74242;BME280;62599;49.146;10.426;2023-05-10T00:34:50;95079.19;;;12.21;100.00
74242;BME280;62599;49.146;10.426;2023-05-10T00:37:16;95077.59;;;12.20;100.00
74242;BME280;62599;49.146;10.426;2023-05-10T00:39:41;95072.19;;;12.20;100.00
74242;BME280;62599;49.146;10.426;2023-05-10T00:42:06;95076.06;;;12.19;100.00
74242;BME280;62599;49.146;10.426;2023-05-10T00:44:32;95075.66;;;12.17;100.00
74242;BME280;62599;49.146;10.426;2023-05-10T00:46:58;95074.06;;;12.16;100.00
74242;BME280;62599;49.146;10.426;2023-05-10T00:49:24;95070.16;;;12.13;100.00
74242;BME280;62599;49.146;10.426;2023-05-10T00:51:50;95074.00;;;12.12;100.00
74242;BME280;62599;49.146;10.426;2023-05-10T00:54:15;95071.28;;;12.12;100.00
74242;BME280;62599;49.146;10.426;2023-05-10T00:56:41;95074.34;;;12.11;100.00
74242;BME280;62599;49.146;10.426;2023-05-10T00:59:08;95075.84;;;12.08;100.00
74242;BME280;62599;49.146;10.426;2023-05-10T01:01:34;95070.44;;;12.08;100.00
74242;BME280;62599;49.146;10.426;2023-05-10T01:04:01;95070.38;;;12.04;100.00
74242;BME280;62599;49.146;10.426;2023-05-10T01:06:28;95070.31;;;12.01;100.00
74242;BME280;62599;49.146;10.426;2023-05-10T01:08:53;95075.69;;;12.01;100.00
74242;BME280;62599;49.146;10.426;2023-05-10T01:11:19;95079.09;;;11.98;100.00
74242;BME280;62599;49.146;10.426;2023-05-10T01:13:47;95067.47;;;11.94;100.00
74242;BME280;62599;49.146;10.426;2023-05-10T01:16:16;95078.31;;;11.97;100.00
74242;BME280;62599;49.146;10.426;2023-05-10T01:18:42;95073.28;;;11.96;100.00
74242;BME280;62599;49.146;10.426;2023-05-10T01:32:57;95080.53;;;11.92;100.00
74242;BME280;62599;49.146;10.426;2023-05-10T01:35:34;95085.56;;;11.93;100.00
74242;BME280;62599;49.146;10.426;2023-05-10T01:46:53;95083.75;;;11.81;100.00
74242;BME280;62599;49.146;10.426;2023-05-10T01:49:25;95084.47;;;11.78;100.00
74242;BME280;62599;49.146;10.426;2023-05-10T01:51:53;95088.72;;;11.79;100.00
74242;BME280;62599;49.146;10.426;2023-05-10T01:54:22;95087.94;;;11.79;100.00
74242;BME280;62599;49.146;10.426;2023-05-10T01:56:56;95082.91;;;11.77;100.00
74242;BME280;62599;49.146;10.426;2023-05-10T01:59:28;95085.16;;;11.75;100.00
74242;BME280;62599;49.146;10.426;2023-05-10T02:01:57;95084.31;;;11.71;100.00
74242;BME280;62599;49.146;10.426;2023-05-10T02:04:25;95093.56;;;11.70;100.00
74242;BME280;62599;49.146;10.426;2023-05-10T02:06:51;95098.94;;;11.70;100.00
74242;BME280;62599;49.146;10.426;2023-05-10T02:09:19;95096.19;;;11.67;100.00
74242;BME280;62599;49.146;10.426;2023-05-10T02:11:48;95099.28;;;11.69;100.00
74242;BME280;62599;49.146;10.426;2023-05-10T02:14:15;95093.88;;;11.69;100.00
74242;BME280;62599;49.146;10.426;2023-05-10T02:16:41;95088.41;;;11.65;100.00
74242;BME280;62599;49.146;10.426;2023-05-10T02:19:10;95091.56;;;11.67;100.00
74242;BME280;62599;49.146;10.426;2023-05-10T02:21:39;95095.09;;;11.71;100.00
74242;BME280;62599;49.146;10.426;2023-05-10T02:24:05;95097.41;;;11.69;100.00
74242;BME280;62599;49.146;10.426;2023-05-10T02:26:33;95095.72;;;11.65;100.00
74242;BME280;62599;49.146;10.426;2023-05-10T02:29:02;95096.50;;;11.65;100.00
74242;BME280;62599;49.146;10.426;2023-05-10T02:31:32;95102.78;;;11.69;100.00
74242;BME280;62599;49.146;10.426;2023-05-10T02:33:59;95107.31;;;11.65;100.00
74242;BME280;62599;49.146;10.426;2023-05-10T02:36:26;95108.44;;;11.64;100.00
74242;BME280;62599;49.146;10.426;2023-05-10T02:38:53;95099.66;;;11.67;100.00
74242;BME280;62599;49.146;10.426;2023-05-10T02:41:20;95116.19;;;11.66;100.00
74242;BME280;62599;49.146;10.426;2023-05-10T02:43:53;95114.97;;;11.63;100.00
74242;BME280;62599;49.146;10.426;2023-05-10T02:46:20;95116.66;;;11.52;100.00
74242;BME280;62599;49.146;10.426;2023-05-10T02:48:46;95113.81;;;11.45;100.00
74242;BME280;62599;49.146;10.426;2023-05-10T02:51:12;95115.88;;;11.36;100.00
74242;BME280;62599;49.146;10.426;2023-05-10T02:53:40;95110.09;;;11.33;100.00
74242;BME280;62599;49.146;10.426;2023-05-10T02:56:15;95113.72;;;11.25;100.00
74242;BME280;62599;49.146;10.426;2023-05-10T02:58:45;95117.13;;;11.22;100.00
74242;BME280;62599;49.146;10.426;2023-05-10T03:01:11;95122.88;;;11.21;100.00
74242;BME280;62599;49.146;10.426;2023-05-10T03:03:36;95132.50;;;11.22;100.00
74242;BME280;62599;49.146;10.426;2023-05-10T03:06:02;95121.81;;;11.25;100.00
74242;BME280;62599;49.146;10.426;2023-05-10T03:08:30;95128.34;;;11.24;100.00
74242;BME280;62599;49.146;10.426;2023-05-10T03:13:52;95131.13;;;11.12;100.00
74242;BME280;62599;49.146;10.426;2023-05-10T03:16:36;95138.78;;;11.10;100.00
74242;BME280;62599;49.146;10.426;2023-05-10T03:19:30;95144.06;;;11.06;100.00
74242;BME280;62599;49.146;10.426;2023-05-10T03:21:59;95138.09;;;10.97;100.00
74242;BME280;62599;49.146;10.426;2023-05-10T03:24:30;95146.78;;;10.91;100.00
74242;BME280;62599;49.146;10.426;2023-05-10T03:26:56;95144.78;;;10.88;100.00
74242;BME280;62599;49.146;10.426;2023-05-10T03:29:28;95136.88;;;10.79;100.00
74242;BME280;62599;49.146;10.426;2023-05-10T03:31:54;95146.84;;;10.78;100.00
74242;BME280;62599;49.146;10.426;2023-05-10T03:34:24;95153.34;;;10.77;100.00
74242;BME280;62599;49.146;10.426;2023-05-10T03:36:49;95152.16;;;10.75;100.00
74242;BME280;62599;49.146;10.426;2023-05-10T03:39:15;95163.94;;;10.70;100.00
74242;BME280;62599;49.146;10.426;2023-05-10T03:41:40;95161.94;;;10.67;100.00
74242;BME280;62599;49.146;10.426;2023-05-10T03:44:05;95158.81;;;10.65;100.00
74242;BME280;62599;49.146;10.426;2023-05-10T03:46:31;95164.63;;;10.67;100.00
74242;BME280;62599;49.146;10.426;2023-05-10T03:48:56;95165.84;;;10.70;100.00
74242;BME280;62599;49.146;10.426;2023-05-10T03:51:21;95166.63;;;10.70;100.00
74242;BME280;62599;49.146;10.426;2023-05-10T03:53:47;95172.03;;;10.70;100.00
74242;BME280;62599;49.146;10.426;2023-05-10T03:56:12;95169.78;;;10.72;100.00
74242;BME280;62599;49.146;10.426;2023-05-10T03:58:38;95175.16;;;10.72;100.00
74242;BME280;62599;49.146;10.426;2023-05-10T04:01:04;95177.09;;;10.72;100.00
74242;BME280;62599;49.146;10.426;2023-05-10T04:03:29;95165.94;;;10.73;100.00
74242;BME280;62599;49.146;10.426;2023-05-10T04:06:00;95185.94;;;10.72;100.00
74242;BME280;62599;49.146;10.426;2023-05-10T04:08:26;95181.25;;;10.69;100.00
74242;BME280;62599;49.146;10.426;2023-05-10T04:10:51;95179.59;;;10.65;100.00
74242;BME280;62599;49.146;10.426;2023-05-10T04:13:16;95184.81;;;10.73;100.00
74242;BME280;62599;49.146;10.426;2023-05-10T04:15:42;95182.00;;;10.70;100.00
74242;BME280;62599;49.146;10.426;2023-05-10T04:18:08;95187.31;;;10.66;100.00
74242;BME280;62599;49.146;10.426;2023-05-10T04:20:33;95189.13;;;10.62;100.00
74242;BME280;62599;49.146;10.426;2023-05-10T04:22:59;95199.44;;;10.60;100.00
74242;BME280;62599;49.146;10.426;2023-05-10T04:25:28;95190.94;;;10.58;100.00
74242;BME280;62599;49.146;10.426;2023-05-10T04:27:53;95194.06;;;10.60;100.00
74242;BME280;62599;49.146;10.426;2023-05-10T04:30:18;95194.88;;;10.60;100.00
74242;BME280;62599;49.146;10.426;2023-05-10T04:32:44;95186.88;;;10.64;100.00
74242;BME280;62599;49.146;10.426;2023-05-10T04:35:09;95191.47;;;10.64;100.00
74242;BME280;62599;49.146;10.426;2023-05-10T04:37:35;95192.09;;;10.73;100.00
74242;BME280;62599;49.146;10.426;2023-05-10T04:40:02;95185.75;;;10.65;100.00
74242;BME280;62599;49.146;10.426;2023-05-10T04:42:28;95186.63;;;10.69;100.00
74242;BME280;62599;49.146;10.426;2023-05-10T04:44:54;95192.88;;;10.73;100.00
74242;BME280;62599;49.146;10.426;2023-05-10T04:47:19;95194.91;;;10.76;100.00
74242;BME280;62599;49.146;10.426;2023-05-10T04:49:45;95194.53;;;10.78;100.00
74242;BME280;62599;49.146;10.426;2023-05-10T04:52:10;95193.63;;;10.86;100.00
74242;BME280;62599;49.146;10.426;2023-05-10T04:54:36;95193.16;;;10.84;100.00
74242;BME280;62599;49.146;10.426;2023-05-10T04:57:02;95191.94;;;10.81;100.00
74242;BME280;62599;49.146;10.426;2023-05-10T04:59:27;95194.63;;;10.81;100.00
74242;BME280;62599;49.146;10.426;2023-05-10T05:01:53;95193.44;;;10.79;100.00
74242;BME280;62599;49.146;10.426;2023-05-10T05:04:18;95201.59;;;10.82;100.00
74242;BME280;62599;49.146;10.426;2023-05-10T05:06:43;95200.03;;;10.81;100.00
74242;BME280;62599;49.146;10.426;2023-05-10T05:09:09;95206.28;;;10.85;100.00
74242;BME280;62599;49.146;10.426;2023-05-10T05:11:35;95209.78;;;10.86;100.00
74242;BME280;62599;49.146;10.426;2023-05-10T05:14:00;95211.00;;;10.89;100.00
74242;BME280;62599;49.146;10.426;2023-05-10T05:16:30;95213.00;;;10.92;100.00
74242;BME280;62599;49.146;10.426;2023-05-10T05:18:55;95216.34;;;11.01;100.00
74242;BME280;62599;49.146;10.426;2023-05-10T05:21:21;95217.97;;;11.05;100.00
74242;BME280;62599;49.146;10.426;2023-05-10T05:23:47;95230.88;;;11.12;100.00
74242;BME280;62599;49.146;10.426;2023-05-10T05:26:12;95227.91;;;11.17;100.00
74242;BME280;62599;49.146;10.426;2023-05-10T05:28:38;95235.84;;;11.26;100.00
74242;BME280;62599;49.146;10.426;2023-05-10T05:31:04;95240.53;;;11.29;100.00
74242;BME280;62599;49.146;10.426;2023-05-10T05:33:30;95235.66;;;11.35;100.00
74242;BME280;62599;49.146;10.426;2023-05-10T05:35:55;95235.31;;;11.36;100.00
74242;BME280;62599;49.146;10.426;2023-05-10T05:38:21;95239.91;;;11.36;100.00
74242;BME280;62599;49.146;10.426;2023-05-10T05:40:47;95240.09;;;11.43;100.00
74242;BME280;62599;49.146;10.426;2023-05-10T05:43:12;95245.25;;;11.48;100.00
74242;BME280;62599;49.146;10.426;2023-05-10T05:45:38;95253.59;;;11.59;100.00
74242;BME280;62599;49.146;10.426;2023-05-10T05:48:05;95247.84;;;11.60;100.00
74242;BME280;62599;49.146;10.426;2023-05-10T05:51:10;95245.16;;;11.60;100.00
74242;BME280;62599;49.146;10.426;2023-05-10T05:53:35;95253.69;;;11.62;100.00
74242;BME280;62599;49.146;10.426;2023-05-10T05:56:01;95251.16;;;11.69;100.00
74242;BME280;62599;49.146;10.426;2023-05-10T05:58:27;95258.53;;;11.72;100.00
74242;BME280;62599;49.146;10.426;2023-05-10T06:00:53;95251.16;;;11.69;100.00
74242;BME280;62599;49.146;10.426;2023-05-10T06:03:18;95253.78;;;11.66;100.00
74242;BME280;62599;49.146;10.426;2023-05-10T06:05:44;95256.13;;;11.67;100.00
74242;BME280;62599;49.146;10.426;2023-05-10T06:08:09;95254.97;;;11.68;100.00
74242;BME280;62599;49.146;10.426;2023-05-10T06:10:35;95262.28;;;11.68;100.00
74242;BME280;62599;49.146;10.426;2023-05-10T06:13:01;95261.44;;;11.64;100.00
74242;BME280;62599;49.146;10.426;2023-05-10T06:15:26;95258.09;;;11.54;100.00
74242;BME280;62599;49.146;10.426;2023-05-10T06:17:52;95270.81;;;11.54;100.00
74242;BME280;62599;49.146;10.426;2023-05-10T06:20:17;95278.56;;;11.55;100.00
74242;BME280;62599;49.146;10.426;2023-05-10T06:22:43;95277.63;;;11.48;100.00
74242;BME280;62599;49.146;10.426;2023-05-10T06:25:12;95279.59;;;11.51;100.00
74242;BME280;62599;49.146;10.426;2023-05-10T06:27:37;95280.91;;;11.41;100.00
74242;BME280;62599;49.146;10.426;2023-05-10T06:30:03;95289.16;;;11.32;100.00
74242;BME280;62599;49.146;10.426;2023-05-10T06:32:30;95284.56;;;11.33;100.00
74242;BME280;62599;49.146;10.426;2023-05-10T06:34:55;95286.16;;;11.22;100.00
74242;BME280;62599;49.146;10.426;2023-05-10T06:37:20;95289.66;;;11.22;100.00
74242;BME280;62599;49.146;10.426;2023-05-10T06:39:46;95287.59;;;11.31;100.00
74242;BME280;62599;49.146;10.426;2023-05-10T06:42:11;95286.91;;;11.35;100.00
74242;BME280;62599;49.146;10.426;2023-05-10T06:44:37;95285.44;;;11.37;100.00
74242;BME280;62599;49.146;10.426;2023-05-10T06:47:02;95293.94;;;11.39;100.00
74242;BME280;62599;49.146;10.426;2023-05-10T06:49:27;95295.78;;;11.51;100.00
74242;BME280;62599;49.146;10.426;2023-05-10T06:51:56;95307.75;;;11.66;100.00
74242;BME280;62599;49.146;10.426;2023-05-10T06:54:21;95300.34;;;11.78;100.00
74242;BME280;62599;49.146;10.426;2023-05-10T06:56:47;95292.53;;;11.89;100.00
74242;BME280;62599;49.146;10.426;2023-05-10T06:59:12;95302.69;;;12.12;100.00
74242;BME280;62599;49.146;10.426;2023-05-10T07:01:39;95304.06;;;12.21;100.00
74242;BME280;62599;49.146;10.426;2023-05-10T07:04:04;95311.03;;;12.22;100.00
74242;BME280;62599;49.146;10.426;2023-05-10T07:06:30;95303.63;;;12.19;100.00
74242;BME280;62599;49.146;10.426;2023-05-10T07:08:55;95302.44;;;12.17;100.00
74242;BME280;62599;49.146;10.426;2023-05-10T07:11:20;95306.84;;;12.25;100.00
74242;BME280;62599;49.146;10.426;2023-05-10T07:13:46;95306.25;;;12.32;100.00
74242;BME280;62599;49.146;10.426;2023-05-10T07:16:11;95308.16;;;12.31;100.00
74242;BME280;62599;49.146;10.426;2023-05-10T07:18:37;95305.31;;;12.24;100.00
74242;BME280;62599;49.146;10.426;2023-05-10T07:21:05;95310.53;;;12.17;100.00
74242;BME280;62599;49.146;10.426;2023-05-10T07:23:30;95308.88;;;12.12;100.00
74242;BME280;62599;49.146;10.426;2023-05-10T07:25:56;95316.44;;;12.22;100.00
74242;BME280;62599;49.146;10.426;2023-05-10T07:28:23;95304.91;;;12.41;100.00
74242;BME280;62599;49.146;10.426;2023-05-10T07:30:49;95316.09;;;12.59;100.00
74242;BME280;62599;49.146;10.426;2023-05-10T07:33:14;95310.38;;;12.99;100.00
74242;BME280;62599;49.146;10.426;2023-05-10T07:35:41;95321.84;;;13.32;100.00
74242;BME280;62599;49.146;10.426;2023-05-10T07:38:06;95324.09;;;13.49;100.00
74242;BME280;62599;49.146;10.426;2023-05-10T07:40:32;95327.31;;;13.55;100.00
74242;BME280;62599;49.146;10.426;2023-05-10T07:42:57;95322.59;;;13.52;100.00
74242;BME280;62599;49.146;10.426;2023-05-10T07:45:23;95329.22;;;13.54;100.00
74242;BME280;62599;49.146;10.426;2023-05-10T07:47:49;95329.72;;;13.60;100.00
74242;BME280;62599;49.146;10.426;2023-05-10T07:50:14;95331.97;;;13.58;100.00
74242;BME280;62599;49.146;10.426;2023-05-10T07:52:40;95333.38;;;13.48;99.41
74242;BME280;62599;49.146;10.426;2023-05-10T07:55:06;95335.94;;;13.41;100.00
74242;BME280;62599;49.146;10.426;2023-05-10T07:57:33;95341.69;;;13.39;100.00
74242;BME280;62599;49.146;10.426;2023-05-10T07:59:58;95333.38;;;13.48;99.66
74242;BME280;62599;49.146;10.426;2023-05-10T08:02:24;95338.56;;;13.80;98.41
74242;BME280;62599;49.146;10.426;2023-05-10T08:04:49;95328.44;;;14.23;98.19
74242;BME280;62599;49.146;10.426;2023-05-10T08:07:14;95331.34;;;14.60;93.73
74242;BME280;62599;49.146;10.426;2023-05-10T08:09:40;95319.53;;;15.05;90.17
74242;BME280;62599;49.146;10.426;2023-05-10T08:12:05;95321.41;;;15.31;88.53
74242;BME280;62599;49.146;10.426;2023-05-10T08:14:31;95319.47;;;15.66;85.88
74242;BME280;62599;49.146;10.426;2023-05-10T08:16:56;95315.88;;;15.95;85.66
74242;BME280;62599;49.146;10.426;2023-05-10T08:19:22;95322.53;;;16.01;81.36
74242;BME280;62599;49.146;10.426;2023-05-10T08:21:48;95326.81;;;15.65;79.12
74242;BME280;62599;49.146;10.426;2023-05-10T08:24:13;95319.47;;;15.32;81.13
74242;BME280;62599;49.146;10.426;2023-05-10T08:26:39;95318.16;;;15.19;82.23
74242;BME280;62599;49.146;10.426;2023-05-10T08:29:04;95332.13;;;15.21;84.48
74242;BME280;62599;49.146;10.426;2023-05-10T08:31:29;95327.16;;;15.26;84.39
74242;BME280;62599;49.146;10.426;2023-05-10T08:33:55;95332.22;;;15.28;83.52
74242;BME280;62599;49.146;10.426;2023-05-10T08:36:20;95328.06;;;15.37;81.43
74242;BME280;62599;49.146;10.426;2023-05-10T08:38:52;95327.97;;;15.30;80.50
74242;BME280;62599;49.146;10.426;2023-05-10T08:41:21;95329.25;;;15.40;81.52
74242;BME280;62599;49.146;10.426;2023-05-10T08:43:47;95327.84;;;15.53;81.03
74242;BME280;62599;49.146;10.426;2023-05-10T08:46:17;95330.00;;;15.71;80.85
74242;BME280;62599;49.146;10.426;2023-05-10T08:48:53;95336.84;;;15.98;81.07
74242;BME280;62599;49.146;10.426;2023-05-10T08:51:36;95327.97;;;16.01;78.70
74242;BME280;62599;49.146;10.426;2023-05-10T08:54:03;95337.72;;;16.09;77.34
74242;BME280;62599;49.146;10.426;2023-05-10T08:56:29;95332.28;;;16.09;76.18
74242;BME280;62599;49.146;10.426;2023-05-10T08:58:59;95337.56;;;16.40;75.08
74242;BME280;62599;49.146;10.426;2023-05-10T09:01:26;95348.03;;;16.37;74.32
74242;BME280;62599;49.146;10.426;2023-05-10T09:03:52;95341.53;;;16.05;74.20
74242;BME280;62599;49.146;10.426;2023-05-10T09:06:18;95340.56;;;15.83;76.44
74242;BME280;62599;49.146;10.426;2023-05-10T09:08:44;95341.94;;;16.03;77.24
74242;BME280;62599;49.146;10.426;2023-05-10T09:11:11;95351.69;;;16.11;77.40
74242;BME280;62599;49.146;10.426;2023-05-10T09:13:37;95345.34;;;16.45;77.34
74242;BME280;62599;49.146;10.426;2023-05-10T09:16:03;95356.69;;;16.50;75.91
74242;BME280;62599;49.146;10.426;2023-05-10T09:18:29;95361.47;;;16.68;75.74
74242;BME280;62599;49.146;10.426;2023-05-10T09:20:58;95363.72;;;16.58;72.78
74242;BME280;62599;49.146;10.426;2023-05-10T09:23:23;95363.53;;;16.33;72.59
74242;BME280;62599;49.146;10.426;2023-05-10T09:26:11;95366.59;;;16.28;73.61
74242;BME280;62599;49.146;10.426;2023-05-10T09:28:54;95367.53;;;16.47;71.64
74242;BME280;62599;49.146;10.426;2023-05-10T09:31:20;95369.78;;;16.37;70.46
74242;BME280;62599;49.146;10.426;2023-05-10T09:33:47;95371.31;;;16.31;68.26
74242;BME280;62599;49.146;10.426;2023-05-10T09:36:13;95373.47;;;16.15;69.22
74242;BME280;62599;49.146;10.426;2023-05-10T09:38:49;95370.47;;;16.24;70.20
74242;BME280;62599;49.146;10.426;2023-05-10T09:41:21;95367.53;;;16.47;70.07
74242;BME280;62599;49.146;10.426;2023-05-10T09:43:47;95360.63;;;16.56;68.92
74242;BME280;62599;49.146;10.426;2023-05-10T09:46:12;95365.41;;;16.26;69.19
74242;BME280;62599;49.146;10.426;2023-05-10T09:48:45;95365.41;;;15.81;72.11
74242;BME280;62599;49.146;10.426;2023-05-10T09:51:31;95364.81;;;15.31;73.03
74242;BME280;62599;49.146;10.426;2023-05-10T09:54:30;95371.28;;;14.89;75.31
74242;BME280;62599;49.146;10.426;2023-05-10T09:56:55;95379.97;;;14.76;76.96
74242;BME280;62599;49.146;10.426;2023-05-10T09:59:20;95378.97;;;14.87;77.64
74242;BME280;62599;49.146;10.426;2023-05-10T10:01:50;95386.91;;;15.00;76.46
74242;BME280;62599;49.146;10.426;2023-05-10T10:04:16;95380.31;;;15.31;75.34
74242;BME280;62599;49.146;10.426;2023-05-10T10:06:42;95380.16;;;15.50;75.88
74242;BME280;62599;49.146;10.426;2023-05-10T10:09:08;95388.06;;;15.62;76.34
74242;BME280;62599;49.146;10.426;2023-05-10T10:11:35;95384.75;;;15.76;74.35
74242;BME280;62599;49.146;10.426;2023-05-10T10:14:01;95390.88;;;15.70;75.13
74242;BME280;62599;49.146;10.426;2023-05-10T10:16:29;95384.88;;;15.57;74.49
74242;BME280;62599;49.146;10.426;2023-05-10T10:18:55;95376.31;;;15.51;75.99
74242;BME280;62599;49.146;10.426;2023-05-10T10:21:21;95383.47;;;15.67;74.68
74242;BME280;62599;49.146;10.426;2023-05-10T10:23:51;95366.53;;;15.77;74.74
74242;BME280;62599;49.146;10.426;2023-05-10T10:26:17;95370.34;;;16.09;74.37
74242;BME280;62599;49.146;10.426;2023-05-10T10:28:57;95365.97;;;16.46;72.88
74242;BME280;62599;49.146;10.426;2023-05-10T10:32:07;95369.84;;;16.45;71.60
74242;BME280;62599;49.146;10.426;2023-05-10T10:34:35;95376.75;;;16.35;72.36
74242;BME280;62599;49.146;10.426;2023-05-10T10:37:06;95369.50;;;16.02;73.07
74242;BME280;62599;49.146;10.426;2023-05-10T10:39:32;95362.97;;;16.10;73.37
74242;BME280;62599;49.146;10.426;2023-05-10T10:41:58;95361.00;;;16.07;73.25
74242;BME280;62599;49.146;10.426;2023-05-10T10:52:15;95344.94;;;16.94;69.77
74242;BME280;62599;49.146;10.426;2023-05-10T10:54:41;95358.63;;;17.12;66.33
74242;BME280;62599;49.146;10.426;2023-05-10T10:57:14;95348.56;;;17.20;67.14
74242;BME280;62599;49.146;10.426;2023-05-10T10:59:43;95361.94;;;17.61;66.47
74242;BME280;62599;49.146;10.426;2023-05-10T11:02:09;95368.91;;;17.47;64.89
74242;BME280;62599;49.146;10.426;2023-05-10T11:04:42;95364.63;;;17.50;64.25
74242;BME280;62599;49.146;10.426;2023-05-10T11:07:21;95366.59;;;17.56;64.86
74242;BME280;62599;49.146;10.426;2023-05-10T11:09:49;95355.00;;;17.77;65.10
74242;BME280;62599;49.146;10.426;2023-05-10T11:12:14;95355.44;;;18.04;63.93
74242;BME280;62599;49.146;10.426;2023-05-10T11:14:40;95355.03;;;17.88;62.43
74242;BME280;62599;49.146;10.426;2023-05-10T11:17:26;95347.47;;;17.42;63.91
74242;BME280;62599;49.146;10.426;2023-05-10T11:20:08;95360.94;;;17.10;64.42
74242;BME280;62599;49.146;10.426;2023-05-10T11:22:52;95352.81;;;17.14;65.89
74242;BME280;62599;49.146;10.426;2023-05-10T11:25:19;95357.88;;;17.12;65.51
74242;BME280;62599;49.146;10.426;2023-05-10T11:27:48;95359.34;;;16.98;66.21
74242;BME280;62599;49.146;10.426;2023-05-10T11:30:13;95356.34;;;17.18;66.85
74242;BME280;62599;49.146;10.426;2023-05-10T11:32:43;95363.50;;;17.54;64.96
74242;BME280;62599;49.146;10.426;2023-05-10T11:35:10;95360.06;;;17.75;62.81
74242;BME280;62599;49.146;10.426;2023-05-10T11:37:35;95358.16;;;17.90;62.66
74242;BME280;62599;49.146;10.426;2023-05-10T11:40:01;95358.06;;;17.62;63.02
74242;BME280;62599;49.146;10.426;2023-05-10T11:42:27;95366.63;;;17.71;64.10
74242;BME280;62599;49.146;10.426;2023-05-10T11:44:53;95365.91;;;17.77;63.32
74242;BME280;62599;49.146;10.426;2023-05-10T11:47:19;95363.19;;;17.77;63.22
74242;BME280;62599;49.146;10.426;2023-05-10T11:49:45;95371.25;;;17.56;61.96
74242;BME280;62599;49.146;10.426;2023-05-10T11:52:11;95369.19;;;17.24;65.10
74242;BME280;62599;49.146;10.426;2023-05-10T11:54:37;95364.19;;;17.33;64.95
74242;BME280;62599;49.146;10.426;2023-05-10T11:57:02;95363.75;;;17.28;65.33
74242;BME280;62599;49.146;10.426;2023-05-10T11:59:28;95369.69;;;17.51;65.74
74242;BME280;62599;49.146;10.426;2023-05-10T12:01:54;95378.00;;;17.80;66.09
74242;BME280;62599;49.146;10.426;2023-05-10T12:04:19;95373.72;;;18.00;64.96
74242;BME280;62599;49.146;10.426;2023-05-10T12:06:45;95381.56;;;18.20;65.05
74242;BME280;62599;49.146;10.426;2023-05-10T12:09:11;95379.63;;;18.45;64.52
74242;BME280;62599;49.146;10.426;2023-05-10T12:11:39;95380.78;;;18.69;63.73
74242;BME280;62599;49.146;10.426;2023-05-10T12:14:05;95380.41;;;18.35;62.21
74242;BME280;62599;49.146;10.426;2023-05-10T12:16:30;95384.66;;;18.15;63.68
74242;BME280;62599;49.146;10.426;2023-05-10T12:18:58;95389.34;;;18.11;64.37
74242;BME280;62599;49.146;10.426;2023-05-10T12:21:24;95378.81;;;18.02;64.94
74242;BME280;62599;49.146;10.426;2023-05-10T12:23:52;95383.13;;;18.24;65.30
74242;BME280;62599;49.146;10.426;2023-05-10T12:26:18;95381.56;;;18.27;64.95
74242;BME280;62599;49.146;10.426;2023-05-10T12:28:43;95383.13;;;18.17;64.61
74242;BME280;62599;49.146;10.426;2023-05-10T12:34:27;95378.53;;;17.27;66.90
74242;BME280;62599;49.146;10.426;2023-05-10T12:36:58;95392.53;;;16.63;69.44
74242;BME280;62599;49.146;10.426;2023-05-10T12:39:44;95388.13;;;16.48;70.73
74242;BME280;62599;49.146;10.426;2023-05-10T12:42:11;95385.53;;;16.66;71.74
74242;BME280;62599;49.146;10.426;2023-05-10T12:44:37;95388.88;;;16.96;69.68
74242;BME280;62599;49.146;10.426;2023-05-10T12:47:02;95383.50;;;17.03;67.74
74242;BME280;62599;49.146;10.426;2023-05-10T12:49:27;95386.72;;;17.27;67.50
74242;BME280;62599;49.146;10.426;2023-05-10T12:51:53;95385.19;;;17.37;66.76
74242;BME280;62599;49.146;10.426;2023-05-10T12:54:18;95389.94;;;17.54;65.56
74242;BME280;62599;49.146;10.426;2023-05-10T12:56:44;95388.09;;;17.76;65.39
74242;BME280;62599;49.146;10.426;2023-05-10T12:59:09;95385.00;;;17.88;61.88
74242;BME280;62599;49.146;10.426;2023-05-10T13:01:37;95387.72;;;17.77;61.26
74242;BME280;62599;49.146;10.426;2023-05-10T13:04:03;95385.69;;;17.64;61.33
74242;BME280;62599;49.146;10.426;2023-05-10T13:06:28;95390.72;;;17.51;61.95
74242;BME280;62599;49.146;10.426;2023-05-10T13:08:54;95392.66;;;17.50;63.30
74242;BME280;62599;49.146;10.426;2023-05-10T13:11:19;95388.88;;;17.76;63.24
74242;BME280;62599;49.146;10.426;2023-05-10T13:13:45;95381.38;;;17.55;60.75
74242;BME280;62599;49.146;10.426;2023-05-10T13:16:10;95393.44;;;17.54;60.48
74242;BME280;62599;49.146;10.426;2023-05-10T13:18:36;95398.22;;;17.83;60.14